Information Last Ob Photographs Meteogram Network Table Neighbors Monthly Summaries Observation History Wind Roses Custom Wind Roses Data Calendar Satellite Cloud Product Download Terminal Aerodome Forecast

19 April 2024 Observation History, [RUT] RUTLAND STATE(AWOS), timezone: America/New_York

Select Date: Time Order:

Show METARs   Show High Frequency MADIS

Previous Day
Time Wind
(mph)
Vis.
(mi.)
Sky Cond.
(100s ft)
Present Wx Temperature (ºF) Relative
Humidity
Pressure Snow
Depth
(in)
Precipitation (in.)
Air Dwpt Feels Like 6 hour altimeter
(in.)
sea level
(mb)
1 hr 3 hr 6 hr
Max.Min.
12:00 AMESE 1010 OVC031
% 30.17
KRUT 190400Z AUTO 12009KT 10SM OVC031 06/02 A3017 RMK T00600020 MADISHF
12:00 AMM10 OVC031
% 30.17
KRUT 190400Z AUTO /////KT 10SM OVC031 06/02 A3017 RMK T00600020 MADISHF
12:05 AMESE 910 OVC031
% 30.17
KRUT 190405Z AUTO 12008KT 10SM OVC031 06/02 A3017 RMK T00600020 MADISHF
12:10 AMESE 910 OVC031
% 30.17
KRUT 190410Z AUTO 12008KT 10SM OVC031 06/02 A3017 RMK T00600020 MADISHF
12:15 AMESE 910 OVC031
% 30.17
KRUT 190415Z AUTO 12008KT 10SM OVC031 06/02 A3017 RMK T00600020 MADISHF
12:20 AMESE 1010 OVC031
% 30.17
KRUT 190420Z AUTO 12009KT 10SM OVC031 06/02 A3017 RMK T00600020 MADISHF
12:25 AMESE 910 OVC031
% 30.17
KRUT 190425Z AUTO 11008KT 10SM OVC031 06/02 A3017 RMK T00600020 MADISHF
12:30 AMESE 910 OVC031
% 30.17
KRUT 190430Z AUTO 11008KT 10SM OVC031 06/02 A3017 RMK T00600020 MADISHF
12:35 AMESE 910 OVC031
% 30.17
KRUT 190435Z AUTO 12008KT 10SM OVC031 06/02 A3017 RMK T00600020 MADISHF
12:40 AMESE 910 OVC031
-RA % 30.16
KRUT 190440Z AUTO 11008KT 10SM -RA OVC031 06/02 A3016 RMK T00600020 MADISHF
12:45 AMESE 810 OVC031
-RA % 30.17
KRUT 190445Z AUTO 11007KT 10SM -RA OVC031 06/02 A3017 RMK T00600020 MADISHF
12:50 AMESE 1010 OVC031
-RA % 30.16
KRUT 190450Z AUTO 11009KT 10SM -RA OVC031 06/02 A3016 RMK T00600020 MADISHF
12:55 AMESE 910 OVC031
% 30.16
KRUT 190455Z AUTO 12008KT 10SM OVC031 06/02 A3016 RMK T00600020 MADISHF
12:56 AMSE 1010 OVC031
423636 79% 30.161021.4T
KRUT 190456Z AUTO 13009KT 10SM OVC031 06/02 A3016 RMK AO2 RAB37E54 SLP214 P0000 T00560022 401000050 $
1:00 AMSE 810 OVC031
% 30.16
KRUT 190500Z AUTO 13007KT 10SM OVC031 06/02 A3016 RMK T00600020 MADISHF
1:05 AMM10 OVC031
% 30.16
KRUT 190505Z AUTO /////KT 10SM OVC031 06/02 A3016 RMK T00600020 MADISHF
1:10 AMSE 1010 OVC031
-RA % 30.16
KRUT 190510Z AUTO 13009KT 10SM -RA OVC031 06/02 A3016 RMK T00600020 MADISHF
1:15 AMESE 1210 OVC031
-RA % 30.16
KRUT 190515Z AUTO 12010KT 10SM -RA OVC031 06/02 A3016 RMK T00600020 MADISHF
1:20 AMESE 1210 OVC031
% 30.16
KRUT 190520Z AUTO 12010KT 10SM OVC031 06/02 A3016 RMK T00600020 MADISHF
1:25 AMESE 1210 OVC031
% 30.15
KRUT 190525Z AUTO 11010KT 10SM OVC031 06/02 A3015 RMK T00600020 MADISHF
1:25 AMM10 OVC031
% 30.15
KRUT 190525Z AUTO /////KT 10SM OVC031 06/02 A3015 RMK T00600020 MADISHF
1:30 AMSE 1010 OVC031
% 30.15
KRUT 190530Z AUTO 13009KT 10SM OVC031 06/02 A3015 RMK T00600020 MADISHF
1:35 AMESE 1010 OVC031
% 30.15
KRUT 190535Z AUTO 12009KT 10SM OVC031 06/02 A3015 RMK T00600020 MADISHF
1:40 AMSE 910 OVC031
% 30.15
KRUT 190540Z AUTO 14008KT 10SM OVC031 06/02 A3015 RMK T00600020 MADISHF
1:45 AMSE 1210 BKN031
BKN041
OVC049
-RA % 30.15
KRUT 190545Z AUTO 14010KT 10SM -RA BKN031 BKN041 OVC049 06/02 A3015 RMK T00600020 MADISHF
1:50 AMSE 1010 BKN031
OVC049
-RA % 30.15
KRUT 190550Z AUTO 14009KT 10SM -RA BKN031 OVC049 06/02 A3015 RMK T00600020 MADISHF
1:55 AMM10 BKN033
OVC050
-RA % 30.15
KRUT 190555Z AUTO /////KT 10SM -RA BKN033 OVC050 06/03 A3015 RMK T00600030 MADISHF
1:56 AMSE 1010 BKN033
OVC050
-RA423736 43 42 82% 30.141020.8T
KRUT 190556Z AUTO 13009KT 10SM -RA BKN033 OVC050 06/03 A3014 RMK AO2 RAB07E18B43 SLP208 P0000 60000 T00560028 10061 20056 58007 $
2:00 AMESE 1010 BKN033
OVC050
-RA % 30.14
KRUT 190600Z AUTO 12009KT 10SM -RA BKN033 OVC050 05/03 A3014 RMK T00500030 MADISHF
2:05 AMSE 810 BKN033
OVC050
-RA % 30.14
KRUT 190605Z AUTO 13007KT 10SM -RA BKN033 OVC050 05/03 A3014 RMK T00500030 MADISHF
2:10 AMESE 910 BKN033
OVC050
-RA % 30.14
KRUT 190610Z AUTO 12008KT 10SM -RA BKN033 OVC050 05/03 A3014 RMK T00500030 MADISHF
2:15 AMESE 1010 OVC033
-RA % 30.14
KRUT 190615Z AUTO 12009KT 10SM -RA OVC033 05/03 A3014 RMK T00500030 MADISHF
2:20 AMESE 810 OVC033
-RA % 30.14
KRUT 190620Z AUTO 12007KT 10SM -RA OVC033 05/03 A3014 RMK T00500030 MADISHF
2:25 AMSE 910 OVC033
-RA % 30.14
KRUT 190625Z AUTO 13008KT 10SM -RA OVC033 05/03 A3014 RMK T00500030 MADISHF
2:30 AMSE 910 OVC033
-RA % 30.14
KRUT 190630Z AUTO 13008KT 10SM -RA OVC033 05/03 A3014 RMK T00500030 MADISHF
2:35 AMSSE 810 OVC033
-RA % 30.13
KRUT 190635Z AUTO 15007KT 10SM -RA OVC033 05/03 A3013 RMK T00500030 MADISHF
2:40 AMSSE 810 OVC033
-RA % 30.13
KRUT 190640Z AUTO 15007KT 10SM -RA OVC033 05/03 A3013 RMK T00500030 MADISHF
2:45 AMSE 910 OVC033
% 30.13
KRUT 190645Z AUTO 14008KT 10SM OVC033 05/03 A3013 RMK T00500030 MADISHF
2:50 AMSSE 810 OVC033
% 30.14
KRUT 190650Z AUTO 15007KT 10SM OVC033 05/03 A3014 RMK T00500030 MADISHF
2:55 AMSSE 810 OVC033
% 30.14
KRUT 190655Z AUTO 16007KT 10SM OVC033 05/02 A3014 RMK T00500020 MADISHF
2:56 AMS 810 OVC033
413636 82% 30.141020.5T
KRUT 190656Z AUTO 17007KT 10SM OVC033 05/02 A3014 RMK AO2 RAE41 SLP205 P0000 T00500022 $
3:05 AMS 610 OVC033
% 30.14
KRUT 190705Z AUTO 17005KT 10SM OVC033 05/02 A3014 RMK T00500020 MADISHF
3:10 AMS 510 OVC033
% 30.14
KRUT 190710Z AUTO 17004KT 10SM OVC033 06/02 A3014 RMK T00600020 MADISHF
3:15 AMSSW 610 OVC033
% 30.14
KRUT 190715Z AUTO 21005KT 10SM OVC033 06/02 A3014 RMK T00600020 MADISHF
3:20 AMS 610 OVC033
% 30.15
KRUT 190720Z AUTO 17005KT 10SM OVC033 06/02 A3015 RMK T00600020 MADISHF
3:25 AMS 610 OVC033
% 30.15
KRUT 190725Z AUTO 17005KT 10SM OVC033 06/02 A3015 RMK T00600020 MADISHF
3:30 AMSSE 610 OVC033
% 30.15
KRUT 190730Z AUTO 15005KT 10SM OVC033 05/02 A3015 RMK T00500020 MADISHF
3:35 AMSE 810 OVC031
% 30.15
KRUT 190735Z AUTO 14007KT 10SM OVC031 06/02 A3015 RMK T00600020 MADISHF
3:40 AMSSE 1010 OVC031
% 30.15
KRUT 190740Z AUTO 15009KT 10SM OVC031 06/02 A3015 RMK T00600020 MADISHF
3:45 AMSE 810 OVC031
% 30.15
KRUT 190745Z AUTO 13007KT 10SM OVC031 06/02 A3015 RMK T00600020 MADISHF
3:50 AMESE 910 OVC031
% 30.14
KRUT 190750Z AUTO 12008KT 10SM OVC031 06/02 A3014 RMK T00600020 MADISHF
3:55 AMESE 910 OVC031
% 30.14
KRUT 190755Z AUTO 12008KT 10SM OVC031 05/02 A3014 RMK T00500020 MADISHF
3:56 AMESE 910 OVC031
413635 82% 30.141020.70
KRUT 190756Z AUTO 12008KT 10SM OVC031 05/02 A3014 RMK AO2 SLP207 T00500022 $
4:00 AMESE 910 OVC031
% 30.14
KRUT 190800Z AUTO 12008KT 10SM OVC031 06/02 A3014 RMK T00600020 MADISHF
4:05 AMSE 810 OVC031
% 30.14
KRUT 190805Z AUTO 13007KT 10SM OVC031 06/02 A3014 RMK T00600020 MADISHF
4:10 AMESE 910 OVC031
% 30.14
KRUT 190810Z AUTO 12008KT 10SM OVC031 06/02 A3014 RMK T00600020 MADISHF
4:15 AMESE 810 OVC031
% 30.14
KRUT 190815Z AUTO 12007KT 10SM OVC031 06/02 A3014 RMK T00600020 MADISHF
4:20 AMESE 810 OVC031
% 30.14
KRUT 190820Z AUTO 12007KT 10SM OVC031 06/02 A3014 RMK T00600020 MADISHF
4:25 AMSE 810 OVC031
% 30.15
KRUT 190825Z AUTO 13007KT 10SM OVC031 06/02 A3015 RMK T00600020 MADISHF
4:30 AMESE 910 OVC031
% 30.14
KRUT 190830Z AUTO 12008KT 10SM OVC031 06/02 A3014 RMK T00600020 MADISHF
4:35 AMESE 1010 OVC031
% 30.14
KRUT 190835Z AUTO 12009KT 10SM OVC031 06/02 A3014 RMK T00600020 MADISHF
4:35 AMM10 OVC031
% 30.14
KRUT 190835Z AUTO /////KT 10SM OVC031 06/02 A3014 RMK T00600020 MADISHF
4:40 AMESE 810 OVC031
% 30.14
KRUT 190840Z AUTO 12007KT 10SM OVC031 06/02 A3014 RMK T00600020 MADISHF
4:45 AMESE 910 OVC031
% 30.14
KRUT 190845Z AUTO 12008KT 10SM OVC031 06/02 A3014 RMK T00600020 MADISHF
4:50 AMESE 910 OVC031
% 30.14
KRUT 190850Z AUTO 12008KT 10SM OVC031 06/02 A3014 RMK T00600020 MADISHF
4:55 AMSE 910 OVC031
% 30.15
KRUT 190855Z AUTO 13008KT 10SM OVC031 06/02 A3015 RMK T00600020 MADISHF
4:56 AMSE 910 OVC031
423536 76% 30.151020.90T
KRUT 190856Z AUTO 13008KT 10SM OVC031 06/02 A3015 RMK AO2 SLP209 60000 T00560017 53000 $
5:00 AMESE 910 OVC031
% 30.14
KRUT 190900Z AUTO 12008KT 10SM OVC031 06/02 A3014 RMK T00600020 MADISHF
5:05 AMESE 910 OVC031
% 30.14
KRUT 190905Z AUTO 12008KT 10SM OVC031 06/02 A3014 RMK T00600020 MADISHF
5:10 AMESE 1010 OVC031
% 30.14
KRUT 190910Z AUTO 12009KT 10SM OVC031 06/02 A3014 RMK T00600020 MADISHF
5:10 AMM10 OVC031
% 30.14
KRUT 190910Z AUTO /////KT 10SM OVC031 06/02 A3014 RMK T00600020 MADISHF
5:15 AMESE 1010 OVC031
% 30.14
KRUT 190915Z AUTO 12009KT 10SM OVC031 06/02 A3014 RMK T00600020 MADISHF
5:15 AMM10 OVC031
% 30.14
KRUT 190915Z AUTO /////KT 10SM OVC031 06/02 A3014 RMK T00600020 MADISHF
5:20 AMESE 1010 OVC031
% 30.14
KRUT 190920Z AUTO 12009KT 10SM OVC031 06/02 A3014 RMK T00600020 MADISHF
5:20 AMM10 OVC031
% 30.14
KRUT 190920Z AUTO /////KT 10SM OVC031 06/02 A3014 RMK T00600020 MADISHF
5:25 AMESE 1010 OVC031
% 30.14
KRUT 190925Z AUTO 12009KT 10SM OVC031 06/02 A3014 RMK T00600020 MADISHF
5:25 AMM10 OVC031
% 30.14
KRUT 190925Z AUTO /////KT 10SM OVC031 06/02 A3014 RMK T00600020 MADISHF
5:30 AMESE 1010 OVC031
% 30.14
KRUT 190930Z AUTO 12009KT 10SM OVC031 06/02 A3014 RMK T00600020 MADISHF
5:35 AMSE 910 OVC031
% 30.15
KRUT 190935Z AUTO 14008KT 10SM OVC031 06/02 A3015 RMK T00600020 MADISHF
5:40 AMSE 910 OVC031
% 30.15
KRUT 190940Z AUTO 14008KT 10SM OVC031 06/02 A3015 RMK T00600020 MADISHF
5:45 AMS 610 OVC031
% 30.15
KRUT 190945Z AUTO 17005KT 10SM OVC031 06/02 A3015 RMK T00600020 MADISHF
5:50 AMS 610 OVC031
% 30.16
KRUT 190950Z AUTO 18005KT 10SM OVC031 06/02 A3016 RMK T00600020 MADISHF
5:55 AMS 610 OVC031
% 30.16
KRUT 190955Z AUTO 17005KT 10SM OVC031 06/02 A3016 RMK T00600020 MADISHF
5:56 AMSSE 810 OVC031
423537 76% 30.161021.20
KRUT 190956Z AUTO 16007KT 10SM OVC031 06/02 A3016 RMK AO2 SLP212 T00560017 $
6:00 AMSE 810 OVC031
% 30.16
KRUT 191000Z AUTO 13007KT 10SM OVC031 06/02 A3016 RMK T00600020 MADISHF
6:15 AMESE 910 OVC031
% 30.16
KRUT 191015Z AUTO 12008KT 10SM OVC031 06/02 A3016 RMK T00600020 MADISHF
6:20 AMSE 910 OVC031
% 30.16
KRUT 191020Z AUTO 13008KT 10SM OVC031 06/02 A3016 RMK T00600020 MADISHF
6:25 AMESE 910 OVC031
% 30.16
KRUT 191025Z AUTO 12008KT 10SM OVC031 06/02 A3016 RMK T00600020 MADISHF
6:30 AMESE 1010 OVC031
% 30.16
KRUT 191030Z AUTO 12009KT 10SM OVC031 06/02 A3016 RMK T00600020 MADISHF
6:35 AMESE 1010 OVC031
% 30.16
KRUT 191035Z AUTO 12009KT 10SM OVC031 06/02 A3016 RMK T00600020 MADISHF
6:40 AMSE 910 OVC031
% 30.16
KRUT 191040Z AUTO 14008KT 10SM OVC031 06/02 A3016 RMK T00600020 MADISHF
6:45 AMSE 810 OVC031
% 30.17
KRUT 191045Z AUTO 14007KT 10SM OVC031 06/02 A3017 RMK T00600020 MADISHF
6:50 AMESE 910 OVC031
% 30.16
KRUT 191050Z AUTO 12008KT 10SM OVC031 06/02 A3016 RMK T00600020 MADISHF
6:55 AMESE 1010 OVC031
% 30.16
KRUT 191055Z AUTO 11009KT 10SM OVC031 06/02 A3016 RMK T00600020 MADISHF
6:56 AMESE 1010 OVC031
423636 79% 30.161021.40
KRUT 191056Z AUTO 11009KT 10SM OVC031 06/02 A3016 RMK AO2 SLP214 T00560022 $
7:00 AMM10 OVC031
% 30.16
KRUT 191100Z AUTO /////KT 10SM OVC031 06/02 A3016 RMK T00600020 MADISHF
7:05 AMESE 1010 OVC031
% 30.16
KRUT 191105Z AUTO 12009KT 10SM OVC031 06/02 A3016 RMK T00600020 MADISHF
7:10 AMESE 1010 OVC031
% 30.16
KRUT 191110Z AUTO 12009KT 10SM OVC031 06/02 A3016 RMK T00600020 MADISHF
7:15 AMM10 OVC031
% 30.15
KRUT 191115Z AUTO /////KT 10SM OVC031 06/02 A3015 RMK T00600020 MADISHF
7:20 AMM10 OVC031
% 30.15
KRUT 191120Z AUTO /////KT 10SM OVC031 06/02 A3015 RMK T00600020 MADISHF
7:25 AMESE 1210 OVC031
% 30.15
KRUT 191125Z AUTO 12010KT 10SM OVC031 06/02 A3015 RMK T00600020 MADISHF
7:25 AMM10 OVC031
% 30.15
KRUT 191125Z AUTO /////KT 10SM OVC031 06/02 A3015 RMK T00600020 MADISHF
7:35 AMESE 1210 OVC033
% 30.14
KRUT 191135Z AUTO 11010KT 10SM OVC033 06/02 A3014 RMK T00600020 MADISHF
7:35 AMM10 OVC033
% 30.14
KRUT 191135Z AUTO /////KT 10SM OVC033 06/02 A3014 RMK T00600020 MADISHF
7:45 AMESE 1310 OVC033
% 30.14
KRUT 191145Z AUTO 11011KT 10SM OVC033 06/02 A3014 RMK T00600020 MADISHF
7:45 AMM10 OVC033
% 30.14
KRUT 191145Z AUTO /////KT 10SM OVC033 06/02 A3014 RMK T00600020 MADISHF
7:50 AMESE 1310 BKN033
OVC065
% 30.13
KRUT 191150Z AUTO 11011KT 10SM BKN033 OVC065 06/02 A3013 RMK T00600020 MADISHF
7:55 AMM10 BKN033
OVC065
% 30.13
KRUT 191155Z AUTO /////KT 10SM BKN033 OVC065 06/02 A3013 RMK T00600020 MADISHF
7:56 AMESE 14G 1810 BKN033
OVC065
433536 43 41 73% 30.131020.30
KRUT 191156Z AUTO 11012G16KT 10SM BKN033 OVC065 06/02 A3013 RMK AO2 SLP203 60000 70007 T00610017 10061 20050 58005 $
8:00 AMESE 1710 SCT033
OVC065
% 30.12
KRUT 191200Z AUTO 12015KT 10SM SCT033 OVC065 06/02 A3012 RMK T00600020 MADISHF
8:05 AMSE 1310 FEW033
OVC060
% 30.13
KRUT 191205Z AUTO 13011KT 10SM FEW033 OVC060 07/02 A3013 RMK T00700020 MADISHF
8:05 AMM10 FEW033
OVC060
% 30.13
KRUT 191205Z AUTO /////KT 10SM FEW033 OVC060 07/02 A3013 RMK T00700020 MADISHF
8:10 AMESE 1610 FEW033
OVC060
% 30.12
KRUT 191210Z AUTO 12014KT 10SM FEW033 OVC060 07/02 A3012 RMK T00700020 MADISHF
8:10 AMM10 FEW033
OVC060
% 30.12
KRUT 191210Z AUTO /////KT 10SM FEW033 OVC060 07/02 A3012 RMK T00700020 MADISHF
8:15 AMM10 OVC060
% 30.12
KRUT 191215Z AUTO /////KT 10SM OVC060 07/02 A3012 RMK T00700020 MADISHF
8:20 AMSE 1310 FEW046
OVC060
% 30.12
KRUT 191220Z AUTO 13011KT 10SM FEW046 OVC060 07/02 A3012 RMK T00700020 MADISHF
8:20 AMM10 FEW046
OVC060
% 30.12
KRUT 191220Z AUTO /////KT 10SM FEW046 OVC060 07/02 A3012 RMK T00700020 MADISHF
8:25 AMSE 1310 FEW046
BKN060
% 30.12
KRUT 191225Z AUTO 14011KT 10SM FEW046 BKN060 07/02 A3012 RMK T00700020 MADISHF
8:30 AMSE 1010 BKN060
% 30.12
KRUT 191230Z AUTO 13009KT 10SM BKN060 07/02 A3012 RMK T00700020 MADISHF
8:35 AMSE 1310 BKN065
% 30.11
KRUT 191235Z AUTO 13011KT 10SM BKN065 07/02 A3011 RMK T00700020 MADISHF
8:35 AMM10 BKN065
% 30.11
KRUT 191235Z AUTO /////KT 10SM BKN065 07/02 A3011 RMK T00700020 MADISHF
8:40 AMSE 1210 BKN065
% 30.12
KRUT 191240Z AUTO 13010KT 10SM BKN065 07/02 A3012 RMK T00700020 MADISHF
8:45 AMSE 1010 BKN065
% 30.12
KRUT 191245Z AUTO 13009KT 10SM BKN065 08/02 A3012 RMK T00800020 MADISHF
8:50 AMSE 1010 BKN065
% 30.12
KRUT 191250Z AUTO 13009KT 10SM BKN065 07/01 A3012 RMK T00700010 MADISHF
8:55 AMSSE 1010 FEW043
BKN065
% 30.12
KRUT 191255Z AUTO 15009KT 10SM FEW043 BKN065 08/02 A3012 RMK T00800020 MADISHF
8:56 AMSE 9G 1710 SCT043
BKN065
463541 65% 30.131020.10
KRUT 191256Z AUTO 14008G15KT 100V170 10SM SCT043 BKN065 08/02 A3013 RMK AO2 SLP201 T00780017 $
9:00 AMSE 1010 SCT043
BKN065
% 30.13
KRUT 191300Z AUTO 14009KT 10SM SCT043 BKN065 08/02 A3013 RMK T00800020 MADISHF
9:05 AMESE 910 BKN043
BKN065
% 30.12
KRUT 191305Z AUTO 12008KT 10SM BKN043 BKN065 08/01 A3012 RMK T00800010 MADISHF
9:10 AMSSE 1010 BKN043
OVC065
% 30.12
KRUT 191310Z AUTO 15009KT 10SM BKN043 OVC065 08/02 A3012 RMK T00800020 MADISHF
9:15 AMSE 910 BKN043
OVC065
% 30.12
KRUT 191315Z AUTO 13008KT 10SM BKN043 OVC065 08/01 A3012 RMK T00800010 MADISHF
9:20 AMSE 810 OVC043
% 30.12
KRUT 191320Z AUTO 13007KT 10SM OVC043 08/01 A3012 RMK T00800010 MADISHF
9:25 AMESE 910 OVC043
% 30.12
KRUT 191325Z AUTO 12008KT 10SM OVC043 08/02 A3012 RMK T00800020 MADISHF
9:30 AMESE 1010 OVC041
% 30.12
KRUT 191330Z AUTO 11009KT 10SM OVC041 08/02 A3012 RMK T00800020 MADISHF
9:35 AMSSE 1010 OVC041
% 30.11
KRUT 191335Z AUTO 15009KT 10SM OVC041 08/02 A3011 RMK T00800020 MADISHF
9:40 AMESE 1210 OVC041
% 30.11
KRUT 191340Z AUTO 12010KT 10SM OVC041 08/02 A3011 RMK T00800020 MADISHF
9:45 AMSSE 1210 OVC041
% 30.11
KRUT 191345Z AUTO 15010KT 10SM OVC041 09/02 A3011 RMK T00900020 MADISHF
9:50 AMSE 1210 OVC041
% 30.11
KRUT 191350Z AUTO 14010KT 10SM OVC041 09/02 A3011 RMK T00900020 MADISHF
9:55 AMM10 OVC041
% 30.11
KRUT 191355Z AUTO ///13KT 10SM OVC041 09/02 A3011 RMK T00900020 MADISHF
9:56 AMSE 1510 OVC041
483542 61% 30.111019.50
KRUT 191356Z AUTO 14013KT 10SM OVC041 09/02 A3011 RMK AO2 SLP195 T00890017 $
10:00 AMM10 OVC041
% 30.11
KRUT 191400Z AUTO /////KT 10SM OVC041 09/02 A3011 RMK T00900020 MADISHF
10:05 AMM10 OVC039
% 30.11
KRUT 191405Z AUTO /////KT 10SM OVC039 09/02 A3011 RMK T00900020 MADISHF
10:10 AMSE 1310 OVC039
% 30.1
KRUT 191410Z AUTO 14011KT 10SM OVC039 09/02 A3010 RMK T00900020 MADISHF
10:10 AMM10 OVC039
% 30.1
KRUT 191410Z AUTO /////KT 10SM OVC039 09/02 A3010 RMK T00900020 MADISHF
10:15 AMSE 1010 OVC039
% 30.1
KRUT 191415Z AUTO 13009KT 10SM OVC039 10/02 A3010 RMK T01000020 MADISHF
10:20 AMM10 OVC039
% 30.09
KRUT 191420Z AUTO /////KT 10SM OVC039 09/02 A3009 RMK T00900020 MADISHF
10:30 AMSE 1310 OVC039
% 30.09
KRUT 191430Z AUTO 14011KT 10SM OVC039 10/02 A3009 RMK T01000020 MADISHF
10:30 AMM10 OVC039
% 30.09
KRUT 191430Z AUTO /////KT 10SM OVC039 10/02 A3009 RMK T01000020 MADISHF
10:35 AMSSE 1210 OVC037
% 30.09
KRUT 191435Z AUTO 16010KT 10SM OVC037 10/02 A3009 RMK T01000020 MADISHF
10:40 AMSE 1010 OVC037
% 30.09
KRUT 191440Z AUTO 13009KT 10SM OVC037 11/02 A3009 RMK T01100020 MADISHF
10:45 AMM10 OVC037
% 30.08
KRUT 191445Z AUTO /////KT 10SM OVC037 11/02 A3008 RMK T01100020 MADISHF
10:50 AMESE 15G 2110 OVC037
% 30.08
KRUT 191450Z AUTO 12013G18KT 10SM OVC037 11/02 A3008 RMK T01100020 WND 10V17 MADISHF
10:50 AMM10 OVC037
% 30.08
KRUT 191450Z AUTO /////G18KT 10SM OVC037 11/02 A3008 RMK T01100020 WND 10V17 MADISHF
10:55 AMM10 OVC039
% 30.08
KRUT 191455Z AUTO /////KT 10SM OVC039 11/01 A3008 RMK T01100010 MADISHF
10:56 AMESE 1810 OVC039
513451 52% 30.081018.40
KRUT 191456Z AUTO 11016KT 10SM OVC039 11/01 A3008 RMK AO2 SLP184 T01060011 58016 $
11:00 AMSE 12G 1810 OVC039
% 30.08
KRUT 191500Z AUTO 13010G16KT 10SM OVC039 10/02 A3008 RMK T01000020 MADISHF
11:00 AMM10 OVC039
% 30.08
KRUT 191500Z AUTO /////G16KT 10SM OVC039 10/02 A3008 RMK T01000020 MADISHF
11:05 AMM10 OVC039
% 30.07
KRUT 191505Z AUTO /////KT 10SM OVC039 11/02 A3007 RMK T01100020 MADISHF
11:10 AMESE 1510 OVC039
% 30.08
KRUT 191510Z AUTO 12013KT 10SM OVC039 10/01 A3008 RMK T01000010 MADISHF
11:15 AMM10 OVC039
% 30.07
KRUT 191515Z AUTO /////KT 10SM OVC039 11/02 A3007 RMK T01100020 MADISHF
11:20 AMM10 OVC039
% 30.07
KRUT 191520Z AUTO /////KT 10SM OVC039 11/02 A3007 RMK T01100020 MADISHF
11:25 AMM10 OVC039
% 30.07
KRUT 191525Z AUTO /////KT 10SM OVC039 11/02 A3007 RMK T01100020 MADISHF
11:30 AMSE 1510 OVC037
% 30.07
KRUT 191530Z AUTO 13013KT 10SM OVC037 11/02 A3007 RMK T01100020 MADISHF
11:30 AMM10 OVC037
% 30.07
KRUT 191530Z AUTO /////KT 10SM OVC037 11/02 A3007 RMK T01100020 MADISHF
11:35 AMM10 OVC037
% 30.07
KRUT 191535Z AUTO /////KT 10SM OVC037 11/02 A3007 RMK T01100020 MADISHF
11:40 AMSE 1010 OVC037
% 30.07
KRUT 191540Z AUTO 13009KT 10SM OVC037 11/02 A3007 RMK T01100020 MADISHF
11:45 AMM10 OVC037
% 30.06
KRUT 191545Z AUTO /////KT 10SM OVC037 11/02 A3006 RMK T01100020 MADISHF
11:50 AMESE 1810 OVC037
% 30.05
KRUT 191550Z AUTO 12016KT 10SM OVC037 11/02 A3005 RMK T01100020 MADISHF
11:50 AMM10 OVC037
% 30.05
KRUT 191550Z AUTO /////KT 10SM OVC037 11/02 A3005 RMK T01100020 MADISHF
11:55 AMM10 OVC037
% 30.05
KRUT 191555Z AUTO /////KT 10SM OVC037 11/02 A3005 RMK T01100020 MADISHF
11:56 AMESE 2010 OVC037
523652 54% 30.0410170
KRUT 191556Z AUTO 12017KT 10SM OVC037 11/02 A3004 RMK AO2 PRESFR SLP170 T01110022 $
12:00 PMM10 BKN037
% 30.04
KRUT 191600Z AUTO /////KT 10SM BKN037 11/02 A3004 RMK T01100020 MADISHF
12:05 PMM10 BKN037
% 30.04
KRUT 191605Z AUTO /////KT 10SM BKN037 12/03 A3004 RMK T01200030 MADISHF
12:10 PMESE 1810 BKN037
% 30.04
KRUT 191610Z AUTO 12016KT 10SM BKN037 12/02 A3004 RMK T01200020 MADISHF
12:10 PMM10 BKN037
% 30.04
KRUT 191610Z AUTO /////KT 10SM BKN037 12/02 A3004 RMK T01200020 MADISHF
12:15 PMSSE 1310 BKN037
% 30.05
KRUT 191615Z AUTO 15011KT 10SM BKN037 12/03 A3005 RMK T01200030 MADISHF
12:15 PMM10 BKN037
% 30.05
KRUT 191615Z AUTO /////KT 10SM BKN037 12/03 A3005 RMK T01200030 MADISHF
12:20 PMM10 SCT037
BKN055
% 30.05
KRUT 191620Z AUTO /////KT 10SM SCT037 BKN055 12/03 A3005 RMK T01200030 MADISHF
12:25 PMSE 1310 FEW037
BKN055
% 30.05
KRUT 191625Z AUTO 13011KT 10SM FEW037 BKN055 13/03 A3005 RMK T01300030 MADISHF
12:25 PMM10 FEW037
BKN055
% 30.05
KRUT 191625Z AUTO /////KT 10SM FEW037 BKN055 13/03 A3005 RMK T01300030 MADISHF
12:30 PMSE 1610 SCT037
BKN055
% 30.04
KRUT 191630Z AUTO 14014KT 10SM SCT037 BKN055 13/03 A3004 RMK T01300030 MADISHF
12:30 PMM10 SCT037
BKN055
% 30.04
KRUT 191630Z AUTO /////KT 10SM SCT037 BKN055 13/03 A3004 RMK T01300030 MADISHF
12:35 PMSSE 1210 SCT037
BKN055
% 30.04
KRUT 191635Z AUTO 15010KT 10SM SCT037 BKN055 12/03 A3004 RMK T01200030 MADISHF
12:40 PMSSE 1210 SCT039
BKN055
% 30.05
KRUT 191640Z AUTO 15010KT 10SM SCT039 BKN055 12/03 A3005 RMK T01200030 MADISHF
12:45 PMM10 BKN039
OVC055
% 30.04
KRUT 191645Z AUTO /////KT 10SM BKN039 OVC055 12/03 A3004 RMK T01200030 MADISHF
12:50 PMSE 1310 BKN039
OVC055
% 30.04
KRUT 191650Z AUTO 14011KT 10SM BKN039 OVC055 13/03 A3004 RMK T01300030 MADISHF
12:55 PMSE 910 OVC039
% 30.05
KRUT 191655Z AUTO 14008KT 10SM OVC039 13/03 A3005 RMK T01300030 MADISHF
12:56 PMSE 1210 OVC039
553855 53% 30.041016.90
KRUT 191656Z AUTO 14010KT 10SM OVC039 13/03 A3004 RMK AO2 SLP169 T01280033 $
1:00 PMSE 1310 OVC039
% 30.04
KRUT 191700Z AUTO 14011KT 10SM OVC039 12/03 A3004 RMK T01200030 MADISHF
1:10 PMESE 1010 OVC041
% 30.04
KRUT 191710Z AUTO 12009KT 10SM OVC041 13/03 A3004 RMK T01300030 MADISHF
1:15 PMSSE 1510 OVC041
% 30.02
KRUT 191715Z AUTO 15013KT 10SM OVC041 13/03 A3002 RMK T01300030 MADISHF
1:15 PMM10 OVC041
% 30.02
KRUT 191715Z AUTO /////KT 10SM OVC041 13/03 A3002 RMK T01300030 MADISHF
1:20 PMS 1310 OVC041
% 30.02
KRUT 191720Z AUTO 17011KT 10SM OVC041 13/03 A3002 RMK T01300030 MADISHF
1:25 PMESE 1310 OVC041
% 30.02
KRUT 191725Z AUTO 12011KT 10SM OVC041 13/03 A3002 RMK T01300030 MADISHF
1:30 PMSSE 1010 BKN041
% 30.02
KRUT 191730Z AUTO 16009KT 10SM BKN041 13/03 A3002 RMK T01300030 MADISHF
1:35 PMSSE 1710 BKN041
BKN050
% 30.02
KRUT 191735Z AUTO 16015KT 10SM BKN041 BKN050 13/03 A3002 RMK T01300030 MADISHF
1:40 PMSSE 1310 SCT041
BKN050
% 30.02
KRUT 191740Z AUTO 16011KT 10SM SCT041 BKN050 13/03 A3002 RMK T01300030 MADISHF
1:45 PMSSE 1510 FEW041
BKN050
% 30.02
KRUT 191745Z AUTO 16013KT 10SM FEW041 BKN050 13/03 A3002 RMK T01300030 MADISHF
1:50 PMSSE 1610 FEW041
BKN050
% 30.02
KRUT 191750Z AUTO 15014KT 10SM FEW041 BKN050 13/03 A3002 RMK T01300030 MADISHF
1:56 PMSSE 1310 FEW041
BKN050
563656 56 43 47% 30.021016.20
KRUT 191756Z AUTO 15011KT 10SM FEW041 BKN050 13/02 A3002 RMK AO2 SLP162 T01330022 10133 20061 56020 $
2:00 PMM10 FEW041
BKN050
% 30.02
KRUT 191800Z AUTO /////KT 10SM FEW041 BKN050 13/02 A3002 RMK T01300020 MADISHF
2:05 PMSSE 1310 FEW041
BKN050
% 30.02
KRUT 191805Z AUTO 16011KT 10SM FEW041 BKN050 13/03 A3002 RMK T01300030 MADISHF
2:10 PMSSE 1310 FEW041
SCT050
% 30.01
KRUT 191810Z AUTO 15011KT 10SM FEW041 SCT050 14/03 A3001 RMK T01400030 MADISHF
2:20 PMSSE 1310 FEW041
% 29.99
KRUT 191820Z AUTO 15011KT 10SM FEW041 13/02 A2999 RMK T01300020 MADISHF
2:25 PMSSE 1510 CLR
% 29.99
KRUT 191825Z AUTO 15013KT 10SM CLR 14/02 A2999 RMK T01400020 MADISHF
2:30 PMSE 1610 CLR
% 29.98
KRUT 191830Z AUTO 14014KT 10SM CLR 14/02 A2998 RMK T01400020 MADISHF
2:30 PMM10 CLR
% 29.98
KRUT 191830Z AUTO /////KT 10SM CLR 14/02 A2998 RMK T01400020 MADISHF
2:35 PMSE 1310 CLR
% 29.98
KRUT 191835Z AUTO 13011KT 10SM CLR 14/02 A2998 RMK T01400020 MADISHF
2:40 PMM10 CLR
% 29.97
KRUT 191840Z AUTO /////KT 10SM CLR 14/02 A2997 RMK T01400020 MADISHF
2:45 PMSE 1310 CLR
% 29.97
KRUT 191845Z AUTO 14011KT 10SM CLR 14/02 A2997 RMK T01400020 MADISHF
2:50 PMSE 16G 2210 CLR
% 29.97
KRUT 191850Z AUTO 14014G19KT 10SM CLR 14/02 A2997 RMK T01400020 MADISHF
2:56 PMSSE 1710 CLR
573657 45% 29.961014.10
KRUT 191856Z AUTO 16015KT 10SM CLR 14/02 A2996 RMK AO2 SLP141 T01390022 $

The IEM API webservice that provided data to this page. For more details, see documentation.

Data Notes

  • For recent years, this page also optionally shows observations from the MADIS High Frequency METAR dataset. This dataset had a problem with temperatures detailed here.